sensor_id;sensor_type;location;lat;lon;timestamp;P1;durP1;ratioP1;P2;durP2;ratioP2
10353;SDS011;5223;50.924;13.338;2022-07-06T00:01:15;1.40;;;1.40;;
10353;SDS011;5223;50.924;13.338;2022-07-06T00:03:45;1.33;;;1.33;;
10353;SDS011;5223;50.924;13.338;2022-07-06T00:06:17;1.50;;;1.50;;
10353;SDS011;5223;50.924;13.338;2022-07-06T00:08:47;1.40;;;1.40;;
10353;SDS011;5223;50.924;13.338;2022-07-06T00:11:16;1.40;;;1.40;;
10353;SDS011;5223;50.924;13.338;2022-07-06T00:13:57;1.20;;;1.20;;
10353;SDS011;5223;50.924;13.338;2022-07-06T00:16:26;1.20;;;1.20;;
10353;SDS011;5223;50.924;13.338;2022-07-06T00:18:55;1.20;;;1.20;;
10353;SDS011;5223;50.924;13.338;2022-07-06T00:21:28;1.20;;;1.20;;
10353;SDS011;5223;50.924;13.338;2022-07-06T00:23:57;1.50;;;1.50;;
10353;SDS011;5223;50.924;13.338;2022-07-06T00:26:27;1.10;;;1.10;;
10353;SDS011;5223;50.924;13.338;2022-07-06T00:29:01;1.20;;;1.20;;
10353;SDS011;5223;50.924;13.338;2022-07-06T00:31:28;1.10;;;1.10;;
10353;SDS011;5223;50.924;13.338;2022-07-06T00:33:58;1.23;;;1.23;;
10353;SDS011;5223;50.924;13.338;2022-07-06T00:36:29;1.20;;;1.20;;
10353;SDS011;5223;50.924;13.338;2022-07-06T00:38:58;1.20;;;1.20;;
10353;SDS011;5223;50.924;13.338;2022-07-06T00:41:32;1.30;;;1.30;;
10353;SDS011;5223;50.924;13.338;2022-07-06T00:44:06;1.20;;;1.20;;
10353;SDS011;5223;50.924;13.338;2022-07-06T00:46:37;1.20;;;1.20;;
10353;SDS011;5223;50.924;13.338;2022-07-06T00:49:07;2.40;;;1.13;;
10353;SDS011;5223;50.924;13.338;2022-07-06T00:51:57;1.50;;;1.40;;
10353;SDS011;5223;50.924;13.338;2022-07-06T00:54:32;1.00;;;1.00;;
10353;SDS011;5223;50.924;13.338;2022-07-06T00:57:06;1.10;;;1.10;;
10353;SDS011;5223;50.924;13.338;2022-07-06T00:59:41;1.30;;;1.30;;
10353;SDS011;5223;50.924;13.338;2022-07-06T01:02:18;1.10;;;1.10;;
10353;SDS011;5223;50.924;13.338;2022-07-06T01:04:49;1.00;;;1.00;;
10353;SDS011;5223;50.924;13.338;2022-07-06T01:07:16;0.90;;;0.90;;
10353;SDS011;5223;50.924;13.338;2022-07-06T01:09:43;0.83;;;0.83;;
10353;SDS011;5223;50.924;13.338;2022-07-06T01:12:12;1.00;;;1.00;;
10353;SDS011;5223;50.924;13.338;2022-07-06T01:14:54;1.10;;;1.10;;
10353;SDS011;5223;50.924;13.338;2022-07-06T01:17:24;1.00;;;1.00;;
10353;SDS011;5223;50.924;13.338;2022-07-06T01:19:55;1.20;;;1.20;;
10353;SDS011;5223;50.924;13.338;2022-07-06T01:22:31;1.00;;;1.00;;
10353;SDS011;5223;50.924;13.338;2022-07-06T01:24:59;0.90;;;0.90;;
10353;SDS011;5223;50.924;13.338;2022-07-06T01:27:35;1.00;;;1.00;;
10353;SDS011;5223;50.924;13.338;2022-07-06T01:30:13;1.10;;;1.10;;
10353;SDS011;5223;50.924;13.338;2022-07-06T01:32:46;1.07;;;1.07;;
10353;SDS011;5223;50.924;13.338;2022-07-06T01:35:16;1.10;;;1.10;;
10353;SDS011;5223;50.924;13.338;2022-07-06T01:37:55;1.40;;;1.40;;
10353;SDS011;5223;50.924;13.338;2022-07-06T01:40:24;1.30;;;1.30;;
10353;SDS011;5223;50.924;13.338;2022-07-06T01:42:53;1.43;;;1.40;;
10353;SDS011;5223;50.924;13.338;2022-07-06T01:45:30;0.90;;;0.90;;
10353;SDS011;5223;50.924;13.338;2022-07-06T01:48:04;1.57;;;1.57;;
10353;SDS011;5223;50.924;13.338;2022-07-06T01:50:37;1.40;;;1.40;;
10353;SDS011;5223;50.924;13.338;2022-07-06T01:53:16;1.00;;;1.00;;
10353;SDS011;5223;50.924;13.338;2022-07-06T01:55:44;1.00;;;1.00;;
10353;SDS011;5223;50.924;13.338;2022-07-06T01:58:12;0.80;;;0.80;;
10353;SDS011;5223;50.924;13.338;2022-07-06T02:00:39;0.80;;;0.80;;
10353;SDS011;5223;50.924;13.338;2022-07-06T02:03:07;0.93;;;0.93;;
10353;SDS011;5223;50.924;13.338;2022-07-06T02:05:39;0.83;;;0.83;;
10353;SDS011;5223;50.924;13.338;2022-07-06T02:08:07;0.90;;;0.90;;
10353;SDS011;5223;50.924;13.338;2022-07-06T02:10:40;0.90;;;0.90;;
10353;SDS011;5223;50.924;13.338;2022-07-06T02:13:10;0.70;;;0.70;;
10353;SDS011;5223;50.924;13.338;2022-07-06T02:15:47;0.70;;;0.70;;
10353;SDS011;5223;50.924;13.338;2022-07-06T02:18:22;0.90;;;0.90;;
10353;SDS011;5223;50.924;13.338;2022-07-06T02:20:54;0.80;;;0.80;;
10353;SDS011;5223;50.924;13.338;2022-07-06T02:23:30;1.10;;;1.10;;
10353;SDS011;5223;50.924;13.338;2022-07-06T02:26:05;0.90;;;0.90;;
10353;SDS011;5223;50.924;13.338;2022-07-06T02:28:34;1.10;;;1.10;;
10353;SDS011;5223;50.924;13.338;2022-07-06T02:31:07;1.00;;;1.00;;
10353;SDS011;5223;50.924;13.338;2022-07-06T02:33:44;0.90;;;0.90;;
10353;SDS011;5223;50.924;13.338;2022-07-06T02:36:14;0.90;;;0.90;;
10353;SDS011;5223;50.924;13.338;2022-07-06T02:38:43;0.90;;;0.90;;
10353;SDS011;5223;50.924;13.338;2022-07-06T02:41:22;0.70;;;0.70;;
10353;SDS011;5223;50.924;13.338;2022-07-06T02:43:56;0.70;;;0.70;;
10353;SDS011;5223;50.924;13.338;2022-07-06T02:46:30;0.70;;;0.70;;
10353;SDS011;5223;50.924;13.338;2022-07-06T02:48:59;0.80;;;0.80;;
10353;SDS011;5223;50.924;13.338;2022-07-06T02:51:29;0.80;;;0.80;;
10353;SDS011;5223;50.924;13.338;2022-07-06T02:53:59;0.80;;;0.80;;
10353;SDS011;5223;50.924;13.338;2022-07-06T02:56:35;0.70;;;0.70;;
10353;SDS011;5223;50.924;13.338;2022-07-06T02:59:02;0.70;;;0.70;;
10353;SDS011;5223;50.924;13.338;2022-07-06T03:01:30;0.80;;;0.80;;
10353;SDS011;5223;50.924;13.338;2022-07-06T03:04:04;0.70;;;0.70;;
10353;SDS011;5223;50.924;13.338;2022-07-06T03:06:34;0.70;;;0.70;;
10353;SDS011;5223;50.924;13.338;2022-07-06T03:09:08;0.60;;;0.60;;
10353;SDS011;5223;50.924;13.338;2022-07-06T03:11:44;0.80;;;0.80;;
10353;SDS011;5223;50.924;13.338;2022-07-06T03:14:19;0.80;;;0.80;;
10353;SDS011;5223;50.924;13.338;2022-07-06T03:16:51;0.87;;;0.87;;
10353;SDS011;5223;50.924;13.338;2022-07-06T03:19:33;0.90;;;0.90;;
10353;SDS011;5223;50.924;13.338;2022-07-06T03:22:06;0.80;;;0.80;;
10353;SDS011;5223;50.924;13.338;2022-07-06T03:24:36;0.73;;;0.73;;
10353;SDS011;5223;50.924;13.338;2022-07-06T03:27:25;0.73;;;0.73;;
10353;SDS011;5223;50.924;13.338;2022-07-06T03:29:56;1.03;;;1.03;;
10353;SDS011;5223;50.924;13.338;2022-07-06T03:32:28;0.80;;;0.80;;
10353;SDS011;5223;50.924;13.338;2022-07-06T03:35:01;0.80;;;0.80;;
10353;SDS011;5223;50.924;13.338;2022-07-06T03:37:34;0.90;;;0.90;;
10353;SDS011;5223;50.924;13.338;2022-07-06T03:40:08;0.80;;;0.80;;
10353;SDS011;5223;50.924;13.338;2022-07-06T03:46:04;0.90;;;0.90;;
10353;SDS011;5223;50.924;13.338;2022-07-06T03:48:38;0.80;;;0.80;;
10353;SDS011;5223;50.924;13.338;2022-07-06T03:51:08;0.63;;;0.63;;
10353;SDS011;5223;50.924;13.338;2022-07-06T03:53:39;0.70;;;0.70;;
10353;SDS011;5223;50.924;13.338;2022-07-06T03:56:10;0.70;;;0.70;;
10353;SDS011;5223;50.924;13.338;2022-07-06T03:58:59;0.80;;;0.80;;
10353;SDS011;5223;50.924;13.338;2022-07-06T04:01:42;0.90;;;0.90;;
10353;SDS011;5223;50.924;13.338;2022-07-06T04:04:14;0.90;;;0.90;;
10353;SDS011;5223;50.924;13.338;2022-07-06T04:06:48;1.03;;;1.03;;
10353;SDS011;5223;50.924;13.338;2022-07-06T04:09:18;1.00;;;1.00;;
10353;SDS011;5223;50.924;13.338;2022-07-06T04:11:52;1.00;;;1.00;;
10353;SDS011;5223;50.924;13.338;2022-07-06T04:14:25;1.03;;;1.03;;
10353;SDS011;5223;50.924;13.338;2022-07-06T04:17:00;1.03;;;1.03;;
10353;SDS011;5223;50.924;13.338;2022-07-06T04:20:02;1.03;;;1.03;;
10353;SDS011;5223;50.924;13.338;2022-07-06T04:22:36;1.13;;;1.13;;
10353;SDS011;5223;50.924;13.338;2022-07-06T04:25:08;1.00;;;1.00;;
10353;SDS011;5223;50.924;13.338;2022-07-06T04:27:37;1.00;;;1.00;;
10353;SDS011;5223;50.924;13.338;2022-07-06T04:30:04;1.00;;;1.00;;
10353;SDS011;5223;50.924;13.338;2022-07-06T04:32:34;1.83;;;1.83;;
10353;SDS011;5223;50.924;13.338;2022-07-06T04:35:02;1.20;;;1.20;;
10353;SDS011;5223;50.924;13.338;2022-07-06T04:37:31;1.00;;;1.00;;
10353;SDS011;5223;50.924;13.338;2022-07-06T04:40:00;1.20;;;1.20;;
10353;SDS011;5223;50.924;13.338;2022-07-06T04:42:29;1.10;;;1.10;;
10353;SDS011;5223;50.924;13.338;2022-07-06T04:45:06;1.30;;;1.30;;
10353;SDS011;5223;50.924;13.338;2022-07-06T04:47:54;1.10;;;1.10;;
10353;SDS011;5223;50.924;13.338;2022-07-06T04:50:26;1.67;;;1.57;;
10353;SDS011;5223;50.924;13.338;2022-07-06T04:53:07;1.43;;;1.33;;
10353;SDS011;5223;50.924;13.338;2022-07-06T04:55:49;3.20;;;2.00;;
10353;SDS011;5223;50.924;13.338;2022-07-06T04:58:24;0.93;;;0.93;;
10353;SDS011;5223;50.924;13.338;2022-07-06T05:47:56;0.90;;;0.90;;
10353;SDS011;5223;50.924;13.338;2022-07-06T05:51:35;0.80;;;0.80;;
10353;SDS011;5223;50.924;13.338;2022-07-06T05:54:24;0.90;;;0.90;;
10353;SDS011;5223;50.924;13.338;2022-07-06T05:57:56;0.90;;;0.90;;
10353;SDS011;5223;50.924;13.338;2022-07-06T06:03:57;1.10;;;1.10;;
10353;SDS011;5223;50.924;13.338;2022-07-06T06:06:53;1.00;;;1.00;;
10353;SDS011;5223;50.924;13.338;2022-07-06T06:09:55;1.00;;;1.00;;
10353;SDS011;5223;50.924;13.338;2022-07-06T06:12:44;0.90;;;0.90;;
10353;SDS011;5223;50.924;13.338;2022-07-06T06:15:33;1.27;;;1.23;;
10353;SDS011;5223;50.924;13.338;2022-07-06T06:27:34;0.90;;;0.90;;
10353;SDS011;5223;50.924;13.338;2022-07-06T06:30:19;0.90;;;0.90;;
10353;SDS011;5223;50.924;13.338;2022-07-06T06:33:21;1.00;;;1.00;;
10353;SDS011;5223;50.924;13.338;2022-07-06T06:36:18;1.00;;;1.00;;
10353;SDS011;5223;50.924;13.338;2022-07-06T06:38:52;1.00;;;1.00;;
10353;SDS011;5223;50.924;13.338;2022-07-06T06:41:39;1.05;;;1.05;;
10353;SDS011;5223;50.924;13.338;2022-07-06T06:44:48;1.10;;;1.10;;
10353;SDS011;5223;50.924;13.338;2022-07-06T06:47:40;1.02;;;1.02;;
10353;SDS011;5223;50.924;13.338;2022-07-06T06:50:34;1.10;;;1.10;;
10353;SDS011;5223;50.924;13.338;2022-07-06T16:46:26;1.13;;;1.13;;
10353;SDS011;5223;50.924;13.338;2022-07-06T16:48:57;1.10;;;1.10;;
10353;SDS011;5223;50.924;13.338;2022-07-06T16:51:24;1.05;;;1.05;;
10353;SDS011;5223;50.924;13.338;2022-07-06T16:54:07;1.20;;;1.20;;
10353;SDS011;5223;50.924;13.338;2022-07-06T16:56:43;1.10;;;1.10;;
10353;SDS011;5223;50.924;13.338;2022-07-06T16:59:24;1.00;;;1.00;;
10353;SDS011;5223;50.924;13.338;2022-07-06T17:02:20;1.20;;;1.20;;
10353;SDS011;5223;50.924;13.338;2022-07-06T17:04:51;1.05;;;1.05;;
10353;SDS011;5223;50.924;13.338;2022-07-06T17:07:26;1.10;;;1.10;;
10353;SDS011;5223;50.924;13.338;2022-07-06T17:10:06;1.00;;;1.00;;
10353;SDS011;5223;50.924;13.338;2022-07-06T17:12:46;1.10;;;1.10;;
10353;SDS011;5223;50.924;13.338;2022-07-06T17:15:32;1.13;;;1.13;;
10353;SDS011;5223;50.924;13.338;2022-07-06T17:21:23;1.10;;;1.10;;
10353;SDS011;5223;50.924;13.338;2022-07-06T17:24:08;2.17;;;2.13;;
10353;SDS011;5223;50.924;13.338;2022-07-06T17:26:49;1.20;;;1.20;;
10353;SDS011;5223;50.924;13.338;2022-07-06T17:29:29;1.20;;;1.20;;
10353;SDS011;5223;50.924;13.338;2022-07-06T17:32:06;1.10;;;1.10;;
10353;SDS011;5223;50.924;13.338;2022-07-06T17:34:46;1.13;;;1.13;;
10353;SDS011;5223;50.924;13.338;2022-07-06T17:37:30;1.10;;;1.10;;
10353;SDS011;5223;50.924;13.338;2022-07-06T17:40:04;1.25;;;1.25;;
10353;SDS011;5223;50.924;13.338;2022-07-06T17:42:36;1.20;;;1.20;;
10353;SDS011;5223;50.924;13.338;2022-07-06T17:45:11;1.15;;;1.15;;
10353;SDS011;5223;50.924;13.338;2022-07-06T17:47:42;1.20;;;1.20;;
10353;SDS011;5223;50.924;13.338;2022-07-06T17:50:20;1.20;;;1.20;;
10353;SDS011;5223;50.924;13.338;2022-07-06T17:52:53;1.13;;;1.13;;
10353;SDS011;5223;50.924;13.338;2022-07-06T17:55:24;1.13;;;1.13;;
10353;SDS011;5223;50.924;13.338;2022-07-06T17:57:55;1.40;;;1.40;;
10353;SDS011;5223;50.924;13.338;2022-07-06T18:00:29;1.10;;;1.10;;
10353;SDS011;5223;50.924;13.338;2022-07-06T18:03:00;1.10;;;1.10;;
10353;SDS011;5223;50.924;13.338;2022-07-06T18:05:45;1.10;;;1.10;;
10353;SDS011;5223;50.924;13.338;2022-07-06T18:08:19;1.20;;;1.20;;
10353;SDS011;5223;50.924;13.338;2022-07-06T18:10:57;1.00;;;1.00;;
10353;SDS011;5223;50.924;13.338;2022-07-06T18:13:28;1.10;;;1.10;;
10353;SDS011;5223;50.924;13.338;2022-07-06T18:15:56;1.20;;;1.20;;
10353;SDS011;5223;50.924;13.338;2022-07-06T18:18:29;1.10;;;1.10;;
10353;SDS011;5223;50.924;13.338;2022-07-06T18:21:06;1.10;;;1.10;;
10353;SDS011;5223;50.924;13.338;2022-07-06T18:23:44;1.00;;;1.00;;
10353;SDS011;5223;50.924;13.338;2022-07-06T18:26:15;1.20;;;1.20;;
10353;SDS011;5223;50.924;13.338;2022-07-06T18:28:49;1.10;;;1.10;;
10353;SDS011;5223;50.924;13.338;2022-07-06T18:31:19;1.20;;;1.20;;
10353;SDS011;5223;50.924;13.338;2022-07-06T18:33:53;1.10;;;1.10;;
10353;SDS011;5223;50.924;13.338;2022-07-06T18:36:30;1.10;;;1.10;;
10353;SDS011;5223;50.924;13.338;2022-07-06T18:39:00;1.00;;;1.00;;
10353;SDS011;5223;50.924;13.338;2022-07-06T18:41:30;1.13;;;1.13;;
10353;SDS011;5223;50.924;13.338;2022-07-06T18:44:03;1.00;;;1.00;;
10353;SDS011;5223;50.924;13.338;2022-07-06T18:46:35;1.00;;;1.00;;
10353;SDS011;5223;50.924;13.338;2022-07-06T18:49:08;1.10;;;1.10;;
10353;SDS011;5223;50.924;13.338;2022-07-06T18:51:42;1.00;;;1.00;;
10353;SDS011;5223;50.924;13.338;2022-07-06T18:54:12;1.10;;;1.10;;
10353;SDS011;5223;50.924;13.338;2022-07-06T18:56:41;1.10;;;1.10;;
10353;SDS011;5223;50.924;13.338;2022-07-06T18:59:12;1.00;;;1.00;;
10353;SDS011;5223;50.924;13.338;2022-07-06T19:01:41;1.00;;;1.00;;
10353;SDS011;5223;50.924;13.338;2022-07-06T19:04:12;1.10;;;1.10;;
10353;SDS011;5223;50.924;13.338;2022-07-06T19:06:53;0.98;;;0.98;;
10353;SDS011;5223;50.924;13.338;2022-07-06T19:09:27;1.00;;;1.00;;
10353;SDS011;5223;50.924;13.338;2022-07-06T19:11:54;1.00;;;1.00;;
10353;SDS011;5223;50.924;13.338;2022-07-06T19:14:31;1.10;;;1.10;;
10353;SDS011;5223;50.924;13.338;2022-07-06T19:17:02;1.10;;;1.10;;
10353;SDS011;5223;50.924;13.338;2022-07-06T19:19:33;1.00;;;1.00;;
10353;SDS011;5223;50.924;13.338;2022-07-06T19:22:09;1.20;;;1.20;;
10353;SDS011;5223;50.924;13.338;2022-07-06T19:24:43;1.10;;;1.10;;
10353;SDS011;5223;50.924;13.338;2022-07-06T19:27:10;1.10;;;1.10;;
10353;SDS011;5223;50.924;13.338;2022-07-06T19:29:44;1.20;;;1.20;;
10353;SDS011;5223;50.924;13.338;2022-07-06T19:32:20;1.20;;;1.20;;
10353;SDS011;5223;50.924;13.338;2022-07-06T19:46:09;1.20;;;1.20;;
10353;SDS011;5223;50.924;13.338;2022-07-06T19:48:37;1.10;;;1.10;;
10353;SDS011;5223;50.924;13.338;2022-07-06T19:51:10;1.50;;;1.50;;
10353;SDS011;5223;50.924;13.338;2022-07-06T19:53:41;1.20;;;1.20;;
10353;SDS011;5223;50.924;13.338;2022-07-06T19:56:21;1.17;;;1.17;;
10353;SDS011;5223;50.924;13.338;2022-07-06T19:58:51;1.20;;;1.20;;
10353;SDS011;5223;50.924;13.338;2022-07-06T20:01:29;1.10;;;1.10;;
10353;SDS011;5223;50.924;13.338;2022-07-06T20:03:58;1.10;;;1.10;;
10353;SDS011;5223;50.924;13.338;2022-07-06T20:06:38;1.20;;;1.20;;
10353;SDS011;5223;50.924;13.338;2022-07-06T20:09:11;1.10;;;1.10;;
10353;SDS011;5223;50.924;13.338;2022-07-06T20:11:41;1.23;;;1.23;;
10353;SDS011;5223;50.924;13.338;2022-07-06T20:14:09;1.20;;;1.20;;
10353;SDS011;5223;50.924;13.338;2022-07-06T20:16:54;1.20;;;1.20;;
10353;SDS011;5223;50.924;13.338;2022-07-06T20:19:34;1.10;;;1.10;;
10353;SDS011;5223;50.924;13.338;2022-07-06T20:22:04;1.10;;;1.10;;
10353;SDS011;5223;50.924;13.338;2022-07-06T20:24:39;1.20;;;1.20;;
10353;SDS011;5223;50.924;13.338;2022-07-06T20:27:09;1.05;;;1.05;;
10353;SDS011;5223;50.924;13.338;2022-07-06T20:29:50;1.10;;;1.10;;
10353;SDS011;5223;50.924;13.338;2022-07-06T20:32:35;1.10;;;1.10;;
10353;SDS011;5223;50.924;13.338;2022-07-06T20:35:16;1.20;;;1.20;;
10353;SDS011;5223;50.924;13.338;2022-07-06T20:37:51;1.10;;;1.10;;
10353;SDS011;5223;50.924;13.338;2022-07-06T20:43:10;1.10;;;1.10;;
10353;SDS011;5223;50.924;13.338;2022-07-06T20:45:43;1.10;;;1.10;;
10353;SDS011;5223;50.924;13.338;2022-07-06T20:48:27;1.10;;;1.10;;
10353;SDS011;5223;50.924;13.338;2022-07-06T20:51:01;1.10;;;1.10;;
10353;SDS011;5223;50.924;13.338;2022-07-06T20:53:37;1.08;;;1.08;;
10353;SDS011;5223;50.924;13.338;2022-07-06T20:56:10;1.00;;;1.00;;
10353;SDS011;5223;50.924;13.338;2022-07-06T20:58:43;1.10;;;1.10;;
10353;SDS011;5223;50.924;13.338;2022-07-06T21:01:13;1.00;;;1.00;;
10353;SDS011;5223;50.924;13.338;2022-07-06T21:04:03;1.05;;;1.05;;
10353;SDS011;5223;50.924;13.338;2022-07-06T21:06:36;1.10;;;1.10;;
10353;SDS011;5223;50.924;13.338;2022-07-06T21:09:18;1.10;;;1.10;;
10353;SDS011;5223;50.924;13.338;2022-07-06T21:11:57;1.00;;;1.00;;
10353;SDS011;5223;50.924;13.338;2022-07-06T21:14:32;1.10;;;1.10;;
10353;SDS011;5223;50.924;13.338;2022-07-06T21:17:05;1.10;;;1.10;;
10353;SDS011;5223;50.924;13.338;2022-07-06T21:19:44;1.20;;;1.20;;
10353;SDS011;5223;50.924;13.338;2022-07-06T21:22:22;1.00;;;1.00;;
10353;SDS011;5223;50.924;13.338;2022-07-06T21:24:59;1.10;;;1.10;;
10353;SDS011;5223;50.924;13.338;2022-07-06T21:27:34;1.00;;;1.00;;
10353;SDS011;5223;50.924;13.338;2022-07-06T21:30:12;1.10;;;1.10;;
10353;SDS011;5223;50.924;13.338;2022-07-06T21:32:45;1.00;;;1.00;;
10353;SDS011;5223;50.924;13.338;2022-07-06T21:35:34;1.00;;;1.00;;
10353;SDS011;5223;50.924;13.338;2022-07-06T21:38:08;1.10;;;1.10;;
10353;SDS011;5223;50.924;13.338;2022-07-06T21:40:39;1.00;;;1.00;;
10353;SDS011;5223;50.924;13.338;2022-07-06T21:43:24;1.10;;;1.10;;
10353;SDS011;5223;50.924;13.338;2022-07-06T21:46:05;1.10;;;1.10;;
10353;SDS011;5223;50.924;13.338;2022-07-06T21:48:40;1.10;;;1.10;;
10353;SDS011;5223;50.924;13.338;2022-07-06T21:51:20;1.10;;;1.10;;
10353;SDS011;5223;50.924;13.338;2022-07-06T21:53:54;1.10;;;1.10;;
10353;SDS011;5223;50.924;13.338;2022-07-06T21:56:25;1.02;;;1.02;;
10353;SDS011;5223;50.924;13.338;2022-07-06T21:58:58;0.90;;;0.90;;
10353;SDS011;5223;50.924;13.338;2022-07-06T22:01:38;0.95;;;0.95;;
10353;SDS011;5223;50.924;13.338;2022-07-06T22:04:18;1.05;;;1.05;;
10353;SDS011;5223;50.924;13.338;2022-07-06T22:06:59;1.17;;;1.17;;
10353;SDS011;5223;50.924;13.338;2022-07-06T22:09:31;1.10;;;1.10;;
10353;SDS011;5223;50.924;13.338;2022-07-06T22:12:03;1.00;;;1.00;;
10353;SDS011;5223;50.924;13.338;2022-07-06T22:14:36;1.08;;;1.08;;
10353;SDS011;5223;50.924;13.338;2022-07-06T22:17:08;1.00;;;1.00;;
10353;SDS011;5223;50.924;13.338;2022-07-06T22:19:39;1.00;;;1.00;;
10353;SDS011;5223;50.924;13.338;2022-07-06T22:22:24;0.90;;;0.90;;
10353;SDS011;5223;50.924;13.338;2022-07-06T22:25:07;0.90;;;0.90;;
10353;SDS011;5223;50.924;13.338;2022-07-06T22:27:38;0.90;;;0.90;;
10353;SDS011;5223;50.924;13.338;2022-07-06T22:30:09;0.83;;;0.83;;
10353;SDS011;5223;50.924;13.338;2022-07-06T22:32:42;0.90;;;0.90;;
10353;SDS011;5223;50.924;13.338;2022-07-06T22:35:10;0.80;;;0.80;;
10353;SDS011;5223;50.924;13.338;2022-07-06T22:37:51;1.00;;;1.00;;
10353;SDS011;5223;50.924;13.338;2022-07-06T22:40:27;0.90;;;0.90;;
10353;SDS011;5223;50.924;13.338;2022-07-06T22:43:12;0.80;;;0.80;;
10353;SDS011;5223;50.924;13.338;2022-07-06T22:45:47;0.80;;;0.80;;
10353;SDS011;5223;50.924;13.338;2022-07-06T22:48:24;0.73;;;0.73;;
10353;SDS011;5223;50.924;13.338;2022-07-06T22:50:56;0.90;;;0.90;;
10353;SDS011;5223;50.924;13.338;2022-07-06T22:53:37;0.70;;;0.70;;
10353;SDS011;5223;50.924;13.338;2022-07-06T22:56:09;0.80;;;0.80;;
10353;SDS011;5223;50.924;13.338;2022-07-06T22:58:40;0.90;;;0.90;;
10353;SDS011;5223;50.924;13.338;2022-07-06T23:01:19;0.80;;;0.80;;
10353;SDS011;5223;50.924;13.338;2022-07-06T23:03:51;0.80;;;0.80;;
10353;SDS011;5223;50.924;13.338;2022-07-06T23:06:26;0.77;;;0.77;;
10353;SDS011;5223;50.924;13.338;2022-07-06T23:09:05;0.77;;;0.77;;
10353;SDS011;5223;50.924;13.338;2022-07-06T23:11:37;0.80;;;0.80;;
10353;SDS011;5223;50.924;13.338;2022-07-06T23:14:10;0.90;;;0.90;;
10353;SDS011;5223;50.924;13.338;2022-07-06T23:16:47;0.80;;;0.80;;
10353;SDS011;5223;50.924;13.338;2022-07-06T23:19:22;0.90;;;0.90;;
10353;SDS011;5223;50.924;13.338;2022-07-06T23:21:54;0.83;;;0.83;;
10353;SDS011;5223;50.924;13.338;2022-07-06T23:24:33;0.80;;;0.80;;
10353;SDS011;5223;50.924;13.338;2022-07-06T23:27:02;0.80;;;0.80;;
10353;SDS011;5223;50.924;13.338;2022-07-06T23:29:37;0.80;;;0.80;;
10353;SDS011;5223;50.924;13.338;2022-07-06T23:32:07;0.80;;;0.80;;
10353;SDS011;5223;50.924;13.338;2022-07-06T23:34:38;0.90;;;0.90;;
10353;SDS011;5223;50.924;13.338;2022-07-06T23:37:13;0.80;;;0.80;;
10353;SDS011;5223;50.924;13.338;2022-07-06T23:39:55;0.60;;;0.60;;
10353;SDS011;5223;50.924;13.338;2022-07-06T23:42:28;0.80;;;0.80;;
10353;SDS011;5223;50.924;13.338;2022-07-06T23:44:57;0.80;;;0.80;;
10353;SDS011;5223;50.924;13.338;2022-07-06T23:47:30;0.83;;;0.83;;
10353;SDS011;5223;50.924;13.338;2022-07-06T23:50:05;0.70;;;0.70;;
10353;SDS011;5223;50.924;13.338;2022-07-06T23:52:35;0.80;;;0.80;;
10353;SDS011;5223;50.924;13.338;2022-07-06T23:55:20;0.70;;;0.70;;
10353;SDS011;5223;50.924;13.338;2022-07-06T23:57:52;0.70;;;0.70;;
